Hovedside
METAR-TAF:

METAR-TAF

Lufthavner :

Kuressaare lufthavn

Kuressaare, Estland

breddegrad: 58-13-48N, lengdegrad: 022-30-34E, høyde over havet: 4 m

Gjeldene værobservasjon

Denne rapporten ble laget for 21 minutter siden, klokken 06:50 UTC
Vind 7 kt fra Sørøst
Temperatur 17°C
Luftfuktighet 72%
Trykk 1012 hPa
Sikt 10 km eller mer
Få skyer i en høyde av 2500 ft

METAR: EEKE 140650Z 13007KT 9999 FEW025 17/12 Q1012

Tid: 10:11 (07:11 UTC)

Varsel

Denne rapporten ble laget for 2 timer og 11 minutter siden, klokken 05:00 UTC
Varsel gyldig fra 14. klokken 06 UTC til 14. klokken 12 UTC
Vind 8 kt fra Sørøst
Sikt 10 km eller mer
Spredte skyer i en høyde av 2500 ft
Sannsynlighet 30% :
Midlertidig
fra 14. klokken 10 UTC til 14. klokken 12 UTC
Brutte skyer i en høyde av 1200 ft
Spredte skyer i en høyde av 2500 ft, Bygeskyer.

TAF: EEKE 140500Z 1406/1412 14008KT 9999 SCT025 PROB30 TEMPO 1410/1412 BKN012 SCT025CB

Værobservasjoner og værvarsel for over 4000 flyplasser (METAR- og TAF-rapporter).

Tilgjengelige stasjoner er representert av de røde og gule prikkene på kartet.

Hold musepekeren over prikken for å se navnet på stasjonen.

Klikk så for å se værobservasjoner og -varsler.

For å forandre kartet kan du klikke på den grønne knappen med svart kryss for å zoome inn, på den grønne knappen med strek for å zoome ut, eller på de grønne pilene for å se tilstøtende kart.


METAR-TAF: